Terminal Aerodrome Forecast
Issued by NWS Atlanta, GA

Home | Current Version | Previous Version | Text Only | Print | Product List | Glossary On
Versions: 1 2 3 4 5 6 7 8 9 10 11
000
FTUS42 KFFC 272323
TAFMCN
TAF
KMCN 272323Z 2800/2824 VRB04KT P6SM -SHRA SCT050 BKN080
     FM280300 00000KT P6SM SHRA OVC050
     FM280800 00000KT 3SM SHRA BR SCT007 OVC015
     FM281000 14003KT 2SM BR OVC009
     FM281300 19004KT 1SM BR OVC003
     FM281600 20005KT 4SM BR OVC012=

USA.gov is the U.S. government's official web portal to all federal, state and local government web resources and services.